Time;durP1;ratioP1;P1;durP2;ratioP2;P2;SDS_P1;SDS_P2;PMS_P1;PMS_P2;Temp;Humidity;BMP_temperature;BMP_pressure;BME280_temperature;BME280_humidity;BME280_pressure;Samples;Min_cycle;Max_cycle;Signal;HPM_P1;HPM_P2
2022/01/19 00:02:28;;;;;;;;;19.00;15.50;;;;;7.03;41.81;102427.13;146610;590;46010;-79
2022/01/19 00:05:20;;;;;;;;;25.00;22.75;;;;;7.04;42.03;102442.78;146609;624;46020;-75
2022/01/19 00:08:18;;;;;;;;;3.75;3.75;;;;;7.03;41.99;102443.50;146608;569;45913;-76
2022/01/19 00:11:10;;;;;;;;;10.25;7.25;;;;;7.04;41.38;102452.16;146616;570;47008;-77
2022/01/19 00:14:02;;;;;;;;;21.75;18.25;;;;;7.05;41.88;102443.66;146613;602;46913;-79
2022/01/19 00:16:54;;;;;;;;;11.75;10.50;;;;;7.04;41.37;102445.34;146609;670;46008;-77
2022/01/19 00:19:46;;;;;;;;;17.75;15.25;;;;;7.02;41.43;102433.97;146603;589;46010;-77
2022/01/19 00:22:38;;;;;;;;;3.50;3.50;;;;;6.98;40.55;102441.25;146609;569;46021;-77
2022/01/19 00:25:31;;;;;;;;;4.75;4.00;;;;;6.98;40.92;102419.00;146611;706;46016;-75
2022/01/19 00:28:23;;;;;;;;;13.75;10.75;;;;;6.97;40.88;102426.56;146604;597;46008;-77
2022/01/19 00:31:15;;;;;;;;;7.75;5.75;;;;;6.91;40.49;102425.22;146608;566;46017;-77
2022/01/19 00:34:07;;;;;;;;;12.25;9.75;;;;;6.90;40.52;102436.31;146614;566;46020;-74
2022/01/19 00:37:00;;;;;;;;;5.25;5.25;;;;;6.88;40.39;102448.13;146610;599;47010;-80
2022/01/19 00:39:52;;;;;;;;;14.00;9.75;;;;;5.69;40.36;102231.69;146614;593;46020;-76
2022/01/19 00:42:46;;;;;;;;;6.25;5.50;;;;;6.27;39.74;102341.91;146608;564;46010;-75
2022/01/19 00:45:38;;;;;;;;;6.75;6.00;;;;;6.77;40.95;102435.94;146616;596;47008;-73
2022/01/19 00:48:31;;;;;;;;;6.50;6.25;;;;;6.75;40.13;102447.75;146609;577;47010;-75
2022/01/19 00:51:23;;;;;;;;;11.25;8.25;;;;;6.76;40.90;102439.28;146615;590;46009;-76
2022/01/19 00:54:15;;;;;;;;;6.75;4.50;;;;;6.73;40.70;102449.31;146609;579;46012;-74
2022/01/19 00:57:08;;;;;;;;;7.25;6.00;;;;;6.71;39.98;102453.41;146603;686;46020;-74
2022/01/19 01:00:00;;;;;;;;;6.00;6.00;;;;;6.67;39.02;102426.44;146610;590;47016;-75
2022/01/19 01:02:52;;;;;;;;;5.50;5.25;;;;;6.66;40.43;102439.16;146616;590;46020;-71
2022/01/19 01:05:45;;;;;;;;;4.75;3.25;;;;;6.65;40.33;102435.69;146612;583;47011;-72
2022/01/19 01:08:37;;;;;;;;;5.75;3.75;;;;;6.61;40.07;102432.69;146616;611;46020;-73
2022/01/19 01:11:35;;;;;;;;;4.00;3.50;;;;;6.53;40.05;102449.09;146613;611;46016;-72
2022/01/19 01:20:48;;;;;;;;;4.75;3.50;;;;;6.34;39.90;102433.56;146617;569;46020;-80
2022/01/19 01:23:41;;;;;;;;;2.00;2.00;;;;;6.30;39.33;102418.56;146609;598;47012;-74
2022/01/19 01:26:33;;;;;;;;;3.75;2.00;;;;;6.29;39.49;102433.09;146601;602;46020;-80
2022/01/19 01:29:26;;;;;;;;;4.00;2.50;;;;;6.25;39.86;102412.97;146611;605;46016;-80
2022/01/19 01:32:18;;;;;;;;;5.00;4.00;;;;;6.22;40.06;102416.16;146616;714;46020;-76
2022/01/19 01:35:12;;;;;;;;;4.25;2.25;;;;;6.20;40.30;102437.41;146613;578;46010;-75
2022/01/19 01:38:04;;;;;;;;;3.25;2.00;;;;;5.00;40.90;102237.03;146616;608;46020;-76
2022/01/19 01:40:56;;;;;;;;;4.00;2.50;;;;;6.15;41.21;102446.34;146613;730;46010;-81
2022/01/19 01:43:49;;;;;;;;;3.00;3.00;;;;;6.14;42.05;102434.22;146617;566;46009;-80
2022/01/19 01:56:18;;;;;;;;;3.00;3.00;;;;;6.12;41.56;102410.88;146605;598;46012;-90
2022/01/19 01:59:11;;;;;;;;;24.75;21.25;;;;;6.08;40.72;102416.50;146612;661;46011;-91
2022/01/19 02:02:03;;;;;;;;;8.00;5.50;;;;;6.12;41.07;102402.25;146611;563;47008;-84
2022/01/19 02:04:55;;;;;;;;;17.75;14.75;;;;;6.11;41.34;102408.19;146614;625;46010;-87
2022/01/19 02:08:10;;;;;;;;;3.50;3.00;;;;;6.12;41.21;102416.03;146607;588;47008;-90
2022/01/19 02:24:02;;;;;;;;;16.50;15.50;;;;;6.11;40.96;102418.47;146610;783;46016;-76
2022/01/19 02:28:57;;;;;;;;;17.00;14.75;;;;;6.11;40.45;102423.63;146604;576;46016;-74
2022/01/19 02:40:10;;;;;;;;;5.00;5.00;;;;;6.06;40.98;102427.41;146610;666;46017;-76
2022/01/19 02:40:18;;;;;;;;;10.00;9.25;;;;;6.03;40.80;102432.28;146616;634;46022;-77
2022/01/19 02:43:20;;;;;;;;;9.75;8.75;;;;;6.01;41.24;102440.78;146611;625;46017;-80
2022/01/19 02:49:22;;;;;;;;;11.00;9.25;;;;;6.03;41.20;102435.75;146607;607;47911;-83
2022/01/19 02:52:14;;;;;;;;;10.25;10.00;;;;;6.03;41.78;102421.97;146616;603;46020;-79
2022/01/19 02:55:07;;;;;;;;;12.50;11.50;;;;;6.02;41.03;102431.38;146605;613;46010;-77
2022/01/19 02:57:59;;;;;;;;;5.00;4.75;;;;;5.99;40.23;102433.66;146604;616;46021;-80
2022/01/19 03:10:30;;;;;;;;;14.00;10.75;;;;;5.97;41.22;102443.78;146617;632;47008;-86
2022/01/19 03:13:22;;;;;;;;;11.00;8.75;;;;;5.95;40.71;102445.31;146601;609;47010;-83
2022/01/19 03:16:14;;;;;;;;;12.00;10.50;;;;;5.98;40.75;102444.69;146612;571;47008;-81
2022/01/19 03:19:08;;;;;;;;;12.25;9.00;;;;;5.96;41.15;102447.13;146604;626;46010;-78
2022/01/19 03:22:01;;;;;;;;;6.00;6.00;;;;;5.97;40.72;102454.09;146614;564;47008;-76
2022/01/19 03:24:53;;;;;;;;;9.00;8.50;;;;;5.99;41.31;102461.97;146609;644;46016;-80
2022/01/19 03:27:47;;;;;;;;;8.25;5.50;;;;;6.00;41.21;102476.66;146603;610;46009;-81
2022/01/19 03:30:39;;;;;;;;;18.75;17.00;;;;;6.00;41.35;102477.56;146603;643;47913;-81
2022/01/19 03:33:31;;;;;;;;;8.75;6.25;;;;;6.05;42.46;102482.28;146611;565;46020;-77
2022/01/19 03:36:24;;;;;;;;;8.00;4.50;;;;;6.06;42.41;102481.50;146615;619;46011;-75
2022/01/19 03:39:16;;;;;;;;;4.50;4.50;;;;;6.05;42.48;102480.59;146617;569;46020;-82
2022/01/19 03:42:08;;;;;;;;;4.25;4.25;;;;;6.03;41.93;102483.78;146609;663;46010;-81
2022/01/19 03:45:00;;;;;;;;;7.75;5.00;;;;;6.00;42.17;102477.56;146614;742;46020;-80
2022/01/19 03:48:07;;;;;;;;;6.25;5.00;;;;;6.00;42.42;102485.28;146612;636;46913;-82
2022/01/19 03:50:59;;;;;;;;;3.25;3.25;;;;;6.01;42.27;102481.03;146616;608;46021;-80
2022/01/19 03:53:52;;;;;;;;;6.00;6.00;;;;;6.02;42.63;102488.03;146610;687;46913;-83
2022/01/19 03:56:44;;;;;;;;;6.75;4.50;;;;;5.99;42.78;102495.44;146600;589;46919;-79
2022/01/19 03:59:36;;;;;;;;;13.00;11.75;;;;;5.99;42.72;102504.06;146611;607;47010;-78
2022/01/19 04:02:29;;;;;;;;;36.50;34.25;;;;;5.95;42.66;102499.41;146610;587;46029;-78
2022/01/19 04:05:38;;;;;;;;;12.75;12.75;;;;;5.95;43.20;102493.31;146606;581;46010;-78
2022/01/19 04:08:30;;;;;;;;;8.75;7.50;;;;;5.93;43.35;102484.53;146606;579;47008;-77
2022/01/19 04:11:25;;;;;;;;;6.50;6.00;;;;;5.94;43.16;102497.56;146613;585;46030;-78
2022/01/19 04:14:23;;;;;;;;;6.00;4.50;;;;;5.93;43.11;102505.16;146614;595;47008;-79
2022/01/19 04:17:18;;;;;;;;;6.75;5.50;;;;;5.91;43.79;102504.03;146609;579;46016;-79
2022/01/19 04:20:11;;;;;;;;;18.00;17.25;;;;;5.89;42.54;102503.91;146620;564;46012;-86
2022/01/19 04:23:03;;;;;;;;;20.00;15.25;;;;;5.85;42.31;102499.19;146606;631;47010;-77
2022/01/19 04:25:55;;;;;;;;;12.25;12.00;;;;;5.80;41.93;102500.44;146604;596;46020;-84
2022/01/19 04:28:48;;;;;;;;;6.00;6.00;;;;;5.77;41.51;102506.19;146604;576;46914;-89
2022/01/19 04:31:40;;;;;;;;;7.00;7.00;;;;;5.77;41.80;102516.47;146614;577;46020;-82
2022/01/19 04:34:32;;;;;;;;;5.75;5.50;;;;;5.76;42.60;102506.94;146612;572;47010;-81
2022/01/19 04:37:36;;;;;;;;;5.00;4.75;;;;;5.76;42.71;102514.66;146614;577;46008;-81
2022/01/19 05:06:00;;;;;;;;;11.00;6.75;;;;;5.67;42.62;102521.47;146610;615;46017;-77
2022/01/19 05:09:11;;;;;;;;;5.75;4.00;;;;;5.65;42.52;102516.94;146614;610;47008;-75
2022/01/19 05:15:13;;;;;;;;;5.50;4.00;;;;;5.51;42.55;102513.91;146619;602;45022;-74
2022/01/19 05:18:06;;;;;;;;;5.25;5.25;;;;;5.47;43.04;102524.59;146612;598;46017;-77
2022/01/19 05:20:59;;;;;;;;;5.25;5.25;;;;;5.47;41.85;102534.00;146616;663;46008;-76
2022/01/19 05:23:51;;;;;;;;;6.75;5.75;;;;;5.50;41.16;102557.47;146613;590;46010;-81
2022/01/19 05:26:45;;;;;;;;;10.00;7.25;;;;;5.53;39.81;102563.81;146603;564;46021;-78
2022/01/19 05:29:37;;;;;;;;;6.75;5.75;;;;;5.60;42.03;102577.31;146612;670;46016;-79
2022/01/19 05:32:30;;;;;;;;;9.75;9.00;;;;;5.65;41.63;102569.28;146617;600;46008;-78
2022/01/19 05:35:22;;;;;;;;;3.00;3.00;;;;;5.68;41.79;102566.13;146608;569;46016;-80
2022/01/19 05:38:14;;;;;;;;;5.00;5.00;;;;;5.68;41.83;102586.72;146616;569;46020;-81
2022/01/19 05:41:06;;;;;;;;;7.75;6.00;;;;;5.70;42.09;102577.47;146609;583;46016;-83
2022/01/19 05:43:59;;;;;;;;;5.50;5.00;;;;;5.72;42.15;102587.16;146619;607;46020;-77
2022/01/19 05:46:51;;;;;;;;;8.50;5.25;;;;;5.74;42.62;102595.06;146614;622;46028;-78
2022/01/19 05:49:44;;;;;;;;;11.25;7.75;;;;;5.75;42.68;102594.28;146616;654;46008;-77
2022/01/19 05:52:36;;;;;;;;;7.50;6.75;;;;;5.76;42.59;102607.34;146615;578;45913;-77
2022/01/19 05:55:28;;;;;;;;;8.00;7.00;;;;;5.79;42.16;102594.78;146602;577;46021;-77
2022/01/19 05:58:20;;;;;;;;;8.75;8.75;;;;;5.81;42.04;102597.47;146610;590;46010;-77
2022/01/19 06:01:12;;;;;;;;;7.25;7.25;;;;;5.84;42.74;102607.19;146616;569;46020;-77
2022/01/19 06:04:05;;;;;;;;;10.25;8.25;;;;;5.86;42.75;102619.47;146611;590;46011;-78
2022/01/19 06:06:57;;;;;;;;;10.75;9.75;;;;;5.84;42.28;102625.19;146616;570;46020;-83
2022/01/19 06:10:00;;;;;;;;;10.25;8.50;;;;;5.84;42.86;102631.25;146612;620;46010;-82
2022/01/19 06:12:52;;;;;;;;;9.75;9.75;;;;;5.82;43.06;102627.59;146616;657;47012;-81
2022/01/19 06:15:45;;;;;;;;;7.25;5.00;;;;;5.85;43.48;102627.00;146611;586;46913;-79
2022/01/19 06:18:40;;;;;;;;;11.00;11.00;;;;;5.89;44.33;102630.06;146618;731;46008;-79
2022/01/19 06:21:32;;;;;;;;;58.25;44.00;;;;;6.04;43.26;102622.97;146608;588;46016;-79
2022/01/19 06:24:25;;;;;;;;;61.25;47.00;;;;;6.62;43.49;102628.72;146604;588;46020;-76
2022/01/19 06:27:18;;;;;;;;;63.25;47.75;;;;;7.75;42.76;102627.38;146608;585;45913;-76
2022/01/19 06:30:11;;;;;;;;;12.00;12.00;;;;;8.93;39.60;102625.16;146612;651;45020;-79
2022/01/19 06:33:03;;;;;;;;;11.00;10.00;;;;;9.93;38.89;102635.53;146605;662;46011;-82
2022/01/19 06:35:56;;;;;;;;;13.00;10.00;;;;;10.83;37.93;102642.12;146608;573;46020;-81
2022/01/19 06:38:48;;;;;;;;;19.50;15.50;;;;;11.71;34.91;102636.03;146603;577;46029;-82
2022/01/19 06:41:40;;;;;;;;;15.25;11.00;;;;;12.40;34.98;102639.63;146610;564;46020;-80
2022/01/19 06:44:32;;;;;;;;;25.00;22.25;;;;;13.08;35.47;102635.03;146608;579;46012;-79
2022/01/19 06:47:24;;;;;;;;;15.50;15.00;;;;;13.80;34.00;102634.91;146612;615;46021;-72
2022/01/19 06:50:20;;;;;;;;;8.00;8.00;;;;;14.50;33.15;102630.88;146602;662;46913;-72
2022/01/19 06:53:12;;;;;;;;;7.25;7.25;;;;;15.11;31.99;102643.47;146603;572;46008;-78
2022/01/19 06:56:04;;;;;;;;;8.75;8.00;;;;;15.59;31.05;102636.91;146613;671;46012;-78
2022/01/19 06:58:56;;;;;;;;;6.50;5.50;;;;;15.81;29.08;102626.97;146614;600;46020;-71
2022/01/19 07:01:48;;;;;;;;;4.00;4.00;;;;;15.79;31.27;102638.16;146610;578;46017;-74
2022/01/19 07:04:47;;;;;;;;;5.00;5.00;;;;;15.62;31.05;102639.72;146617;572;46020;-76
2022/01/19 07:07:41;;;;;;;;;6.00;3.50;;;;;15.29;32.99;102638.53;146612;662;46010;-76
2022/01/19 07:10:33;;;;;;;;;5.00;5.00;;;;;14.99;31.12;102643.63;146615;607;46021;-74
2022/01/19 07:13:25;;;;;;;;;4.75;4.75;;;;;14.86;31.22;102655.00;146612;579;46913;-74
2022/01/19 07:16:19;;;;;;;;;5.75;5.00;;;;;14.85;31.88;102657.50;146616;618;46021;-75
2022/01/19 07:19:13;;;;;;;;;4.50;4.50;;;;;14.94;30.97;102655.50;146612;580;47010;-74
2022/01/19 07:22:04;;;;;;;;;6.50;6.50;;;;;14.84;30.72;102664.44;146605;618;46020;-75
2022/01/19 07:24:58;;;;;;;;;6.25;6.25;;;;;14.73;29.52;102658.50;146610;628;46913;-75
2022/01/19 07:27:50;;;;;;;;;8.00;8.00;;;;;14.32;30.62;102672.31;146615;609;46020;-77
2022/01/19 07:30:43;;;;;;;;;13.00;10.25;;;;;13.94;31.86;102659.28;146610;577;47011;-76
2022/01/19 07:33:35;;;;;;;;;12.75;10.00;;;;;13.80;29.75;102666.19;146608;575;47008;-74
2022/01/19 07:36:29;;;;;;;;;34.50;29.75;;;;;13.46;31.30;102675.03;146606;571;46016;-77
2022/01/19 07:39:21;;;;;;;;;20.75;14.75;;;;;13.12;31.04;102678.72;146607;597;46008;-75
2022/01/19 07:42:13;;;;;;;;;26.25;21.50;;;;;12.64;32.39;102681.25;146606;579;46010;-76
2022/01/19 07:45:06;;;;;;;;;12.00;10.50;;;;;12.16;31.11;102666.38;146612;726;45020;-75
2022/01/19 07:47:59;;;;;;;;;14.50;11.00;;;;;11.77;32.22;102681.63;146603;579;47010;-74
2022/01/19 07:50:52;;;;;;;;;9.50;8.75;;;;;11.49;33.04;102675.03;146604;600;46029;-75
2022/01/19 07:53:44;;;;;;;;;8.00;7.00;;;;;11.35;34.11;102691.25;146611;579;47010;-76
2022/01/19 07:56:36;;;;;;;;;9.00;8.00;;;;;11.16;34.23;102691.47;146618;576;46020;-75
2022/01/19 07:59:28;;;;;;;;;46.75;34.75;;;;;10.95;34.46;102688.03;146611;588;47010;-75
2022/01/19 08:02:21;;;;;;;;;10.75;10.00;;;;;10.77;35.14;102688.34;146610;590;46021;-74
2022/01/19 08:05:13;;;;;;;;;10.50;9.50;;;;;10.62;35.71;102689.69;146603;628;47010;-75
2022/01/19 08:08:06;;;;;;;;;7.75;6.50;;;;;10.56;35.82;102691.75;146614;573;46021;-76
2022/01/19 08:10:58;;;;;;;;;36.75;28.75;;;;;10.48;36.33;102688.56;146613;564;46010;-75
2022/01/19 08:13:50;;;;;;;;;13.00;10.75;;;;;10.39;36.55;102691.28;146610;615;46020;-74
2022/01/19 08:16:42;;;;;;;;;9.00;7.00;;;;;10.30;35.89;102702.56;146604;584;46011;-73
2022/01/19 08:19:35;;;;;;;;;6.75;6.25;;;;;10.23;36.88;102720.97;146602;616;47008;-75
2022/01/19 08:22:27;;;;;;;;;7.00;6.50;;;;;10.26;36.48;102724.75;146611;612;47010;-74
2022/01/19 08:25:20;;;;;;;;;8.50;6.00;;;;;10.31;36.67;102728.66;146618;640;46020;-74
2022/01/19 08:28:12;;;;;;;;;9.50;8.50;;;;;10.42;37.14;102758.06;146610;581;47012;-75
2022/01/19 08:31:04;;;;;;;;;6.00;6.00;;;;;10.59;35.70;102757.81;146619;661;45021;-75
2022/01/19 08:33:56;;;;;;;;;7.50;7.50;;;;;10.75;35.74;102762.59;146612;584;46912;-75
2022/01/19 08:36:49;;;;;;;;;13.50;13.25;;;;;10.94;35.57;102761.50;146616;575;46008;-75
2022/01/19 08:39:41;;;;;;;;;12.50;8.50;;;;;11.07;35.30;102775.59;146605;610;47016;-76
2022/01/19 08:42:35;;;;;;;;;7.00;6.25;;;;;11.20;35.56;102774.91;146616;587;46020;-77
2022/01/19 08:45:27;;;;;;;;;9.25;6.50;;;;;11.39;35.92;102759.13;146609;635;47013;-74
2022/01/19 08:48:22;;;;;;;;;7.75;7.50;;;;;11.60;35.59;102751.25;146605;583;46020;-75
2022/01/19 08:51:14;;;;;;;;;7.75;7.75;;;;;11.77;35.43;102759.59;146609;587;46028;-75
2022/01/19 08:54:07;;;;;;;;;16.00;12.50;;;;;11.91;34.88;102755.50;146616;566;46008;-75
2022/01/19 08:57:01;;;;;;;;;37.00;32.75;;;;;12.12;35.48;102750.12;146604;643;46016;-75
2022/01/19 08:59:53;;;;;;;;;7.50;7.00;;;;;12.22;34.73;102761.38;146610;573;46021;-73
2022/01/19 09:02:45;;;;;;;;;13.50;12.00;;;;;12.15;35.16;102759.13;146611;569;47010;-75
2022/01/19 09:05:37;;;;;;;;;10.00;8.50;;;;;12.15;35.35;102755.56;146608;583;46008;-74
2022/01/19 09:08:31;;;;;;;;;17.00;14.75;;;;;12.26;35.31;102762.53;146611;579;46913;-75
2022/01/19 09:11:23;;;;;;;;;9.00;8.00;;;;;12.32;33.70;102760.41;146609;608;47020;-74
2022/01/19 09:14:16;;;;;;;;;8.25;8.00;;;;;12.15;33.53;102761.72;146614;621;46010;-74
2022/01/19 09:17:11;;;;;;;;;12.25;11.25;;;;;11.91;34.94;102758.09;146604;634;46021;-75
2022/01/19 09:20:04;;;;;;;;;9.50;8.00;;;;;11.70;33.28;102759.88;146607;617;46016;-74
2022/01/19 09:22:57;;;;;;;;;9.50;7.00;;;;;11.44;32.74;102762.09;146615;758;47008;-74
2022/01/19 09:25:49;;;;;;;;;10.50;8.25;;;;;11.15;33.92;102768.44;146609;712;46913;-73
2022/01/19 09:28:41;;;;;;;;;13.00;10.00;;;;;10.98;34.45;102751.50;146617;618;46008;-74
2022/01/19 09:31:34;;;;;;;;;19.25;17.50;;;;;10.93;36.37;102749.28;146603;576;46010;-74
2022/01/19 09:34:27;;;;;;;;;23.50;19.00;;;;;10.95;33.83;102732.16;146607;564;47008;-72
2022/01/19 09:37:23;;;;;;;;;17.75;16.25;;;;;11.05;35.15;102745.09;146606;625;46013;-73
2022/01/19 09:40:16;;;;;;;;;24.00;20.25;;;;;11.14;34.77;102744.94;146613;625;46008;-74
2022/01/19 09:43:08;;;;;;;;;17.00;15.25;;;;;11.24;35.28;102734.50;146607;564;46016;-75
2022/01/19 09:46:03;;;;;;;;;22.00;19.50;;;;;11.29;35.06;102725.41;146607;600;45021;-72
2022/01/19 09:48:55;;;;;;;;;16.25;15.00;;;;;11.31;35.86;102727.34;146606;739;46010;-75
2022/01/19 09:51:49;;;;;;;;;11.50;8.75;;;;;11.38;34.39;102725.25;146608;566;46008;-74
2022/01/19 09:54:41;;;;;;;;;33.50;27.75;;;;;11.40;33.66;102735.00;146614;577;46016;-74
2022/01/19 09:57:37;;;;;;;;;65.00;49.00;;;;;11.46;33.96;102735.44;146608;577;46026;-74
2022/01/19 10:00:30;;;;;;;;;66.00;50.75;;;;;11.47;33.15;102729.47;146605;572;46010;-72
2022/01/19 10:03:28;;;;;;;;;70.25;53.00;;;;;11.52;35.02;102725.53;146610;583;45023;-75
2022/01/19 10:06:25;;;;;;;;;7.25;6.25;;;;;11.66;33.92;102717.94;146608;565;46016;-75
2022/01/19 10:09:29;;;;;;;;;9.00;9.00;;;;;11.80;34.21;102712.13;146616;631;47009;-74
2022/01/19 10:19:23;;;;;;;;;6.00;5.75;;;;;12.37;33.79;102695.72;146605;587;46016;-74
2022/01/19 10:22:22;;;;;;;;;22.75;21.50;;;;;12.36;32.80;102689.59;146614;570;46020;-75
2022/01/19 10:25:14;;;;;;;;;50.25;40.75;;;;;12.41;32.16;102687.34;146605;641;46010;-73
2022/01/19 10:28:06;;;;;;;;;12.25;9.25;;;;;12.58;32.79;102680.78;146608;602;46008;-75
2022/01/19 10:30:58;;;;;;;;;20.00;20.00;;;;;12.82;32.26;102677.41;146610;598;47011;-75
2022/01/19 10:34:15;;;;;;;;;24.50;24.50;;;;;12.07;34.17;102500.19;146610;576;46020;-74
2022/01/19 10:37:07;;;;;;;;;25.25;19.75;;;;;13.35;32.63;102663.84;146608;569;46010;-75
2022/01/19 10:40:02;;;;;;;;;9.25;7.25;;;;;13.66;31.02;102658.19;146611;582;46020;-75
2022/01/19 10:42:54;;;;;;;;;13.75;11.00;;;;;13.89;30.32;102652.84;146608;609;47010;-75
2022/01/19 10:45:46;;;;;;;;;8.00;7.00;;;;;14.04;31.26;102656.50;146604;574;47008;-75
2022/01/19 10:48:43;;;;;;;;;6.75;6.75;;;;;14.11;28.67;102660.41;146611;592;47010;-76
2022/01/19 10:51:46;;;;;;;;;6.75;6.00;;;;;14.08;31.57;102658.53;146617;565;46021;-74
2022/01/19 10:54:40;;;;;;;;;9.00;6.25;;;;;14.17;31.71;102649.50;146615;576;45914;-73
2022/01/19 10:57:34;;;;;;;;;8.50;6.50;;;;;14.18;31.08;102649.63;146619;578;46008;-75
2022/01/19 11:00:33;;;;;;;;;9.50;7.25;;;;;14.04;30.73;102653.00;146611;593;46011;-74
2022/01/19 11:03:30;;;;;;;;;14.25;12.50;;;;;13.98;31.72;102643.03;146611;570;46008;-75
2022/01/19 11:06:23;;;;;;;;;10.00;8.00;;;;;14.01;31.47;102647.56;146606;610;46016;-75
2022/01/19 11:09:15;;;;;;;;;41.75;33.50;;;;;13.04;31.17;102449.78;146615;582;47008;-75
2022/01/19 11:12:13;;;;;;;;;10.50;8.25;;;;;14.07;31.06;102630.63;146603;602;46016;-74
2022/01/19 11:15:06;;;;;;;;;8.25;7.00;;;;;13.30;32.40;102470.75;146603;566;47008;-74
2022/01/19 11:17:58;;;;;;;;;12.50;11.25;;;;;14.30;31.14;102636.50;146611;603;47010;-74
2022/01/19 11:20:53;;;;;;;;;9.00;8.00;;;;;14.38;30.68;102629.16;146608;581;46020;-74
2022/01/19 11:24:25;;;;;;;;;13.00;11.50;;;;;13.48;32.02;102457.16;146611;571;46016;-74
2022/01/19 11:27:19;;;;;;;;;11.00;10.00;;;;;14.49;32.21;102622.97;146609;663;46008;-75
2022/01/19 11:30:24;;;;;;;;;8.00;6.50;;;;;14.60;30.94;102619.34;146606;578;45914;-74
2022/01/19 11:33:32;;;;;;;;;10.50;9.25;;;;;14.69;31.56;102612.13;146617;571;46008;-75
2022/01/19 11:36:36;;;;;;;;;9.25;6.75;;;;;14.75;32.01;102611.62;146608;570;47010;-74
2022/01/19 11:39:30;;;;;;;;;8.75;8.00;;;;;14.72;30.05;102595.75;146616;612;46020;-72
2022/01/19 11:42:25;;;;;;;;;6.75;6.50;;;;;14.67;32.40;102602.38;146610;606;47012;-74
2022/01/19 11:45:40;;;;;;;;;9.00;8.75;;;;;14.70;33.00;102606.13;146610;597;46008;-75
2022/01/19 11:48:35;;;;;;;;;8.25;8.00;;;;;14.70;30.51;102594.75;146610;564;46010;-72
2022/01/19 11:51:38;;;;;;;;;9.25;8.75;;;;;14.65;32.51;102590.94;146617;587;45027;-74
2022/01/19 11:54:35;;;;;;;;;12.75;11.00;;;;;14.72;32.91;102580.97;146609;571;46016;-73
2022/01/19 11:57:32;;;;;;;;;11.25;8.50;;;;;14.85;32.54;102580.06;146611;570;46008;-74
2022/01/19 12:00:28;;;;;;;;;12.50;11.00;;;;;14.99;31.93;102586.16;146608;565;47010;-74
2022/01/19 12:03:36;;;;;;;;;10.50;8.75;;;;;15.10;32.02;102566.81;146607;612;46017;-74
2022/01/19 12:06:36;;;;;;;;;13.25;12.00;;;;;15.07;31.70;102556.19;146611;624;46017;-74
2022/01/19 12:09:28;;;;;;;;;12.50;8.50;;;;;15.01;30.00;102543.66;146611;598;46020;-75
2022/01/19 12:12:23;;;;;;;;;11.00;10.25;;;;;15.01;30.27;102533.22;146609;638;47010;-74
2022/01/19 12:15:59;;;;;;;;;9.00;8.00;;;;;14.96;30.58;102536.34;146601;610;47008;-72
2022/01/19 12:18:55;;;;;;;;;10.00;8.75;;;;;14.86;29.77;102532.25;146609;618;47010;-74
2022/01/19 12:22:00;;;;;;;;;12.50;9.50;;;;;14.80;31.42;102526.66;146614;636;47008;-74
2022/01/19 12:25:09;;;;;;;;;10.25;9.75;;;;;14.71;31.51;102529.56;146608;577;47010;-75
2022/01/19 12:28:01;;;;;;;;;10.25;9.25;;;;;14.59;31.73;102531.41;146615;613;46021;-73
2022/01/19 12:30:54;;;;;;;;;11.00;9.75;;;;;14.58;32.20;102537.44;146609;636;47010;-74
2022/01/19 12:34:22;;;;;;;;;13.50;12.50;;;;;13.80;32.87;102381.97;146613;637;47008;-74
2022/01/19 12:37:16;;;;;;;;;16.50;11.25;;;;;14.76;31.83;102520.31;146605;615;46016;-73
2022/01/19 12:40:36;;;;;;;;;14.50;12.00;;;;;14.88;31.59;102520.19;146609;586;46020;-75
2022/01/19 12:43:38;;;;;;;;;15.75;14.75;;;;;15.10;33.01;102526.72;146603;584;47010;-74
2022/01/19 12:46:42;;;;;;;;;10.75;9.75;;;;;15.29;29.84;102518.31;146605;595;46020;-72
2022/01/19 12:49:36;;;;;;;;;8.50;7.00;;;;;15.32;29.73;102513.25;146611;563;46016;-73
2022/01/19 12:52:31;;;;;;;;;20.25;15.50;;;;;15.30;29.25;102512.28;146616;622;46021;-75
2022/01/19 12:55:29;;;;;;;;;19.25;17.50;;;;;15.33;29.61;102513.38;146608;624;46012;-74
2022/01/19 12:58:29;;;;;;;;;14.00;9.25;;;;;15.44;29.45;102508.78;146609;621;47012;-74
2022/01/19 13:01:21;;;;;;;;;12.00;10.00;;;;;15.54;29.04;102513.72;146608;614;46010;-74
2022/01/19 13:04:13;;;;;;;;;12.50;10.75;;;;;15.63;28.81;102501.19;146613;575;45026;-75
2022/01/19 13:07:29;;;;;;;;;10.25;8.00;;;;;15.59;30.57;102498.31;146605;583;46017;-74
2022/01/19 13:10:48;;;;;;;;;13.00;11.50;;;;;15.53;29.60;102498.84;146614;609;46008;-74
2022/01/19 13:13:56;;;;;;;;;15.00;12.75;;;;;15.73;30.95;102491.31;146605;620;46017;-75
2022/01/19 13:16:50;;;;;;;;;18.25;15.25;;;;;15.97;29.26;102502.31;146602;633;46012;-74
2022/01/19 13:19:43;;;;;;;;;9.75;9.50;;;;;16.15;28.94;102483.31;146606;610;46016;-74
2022/01/19 13:22:34;;;;;;;;;6.75;6.50;;;;;16.28;28.77;102486.63;146615;565;47008;-75
2022/01/19 13:25:29;;;;;;;;;12.75;12.75;;;;;16.42;27.31;102475.22;146610;571;46012;-75
2022/01/19 13:28:31;;;;;;;;;12.00;11.25;;;;;16.47;28.72;102471.13;146611;615;46021;-75
2022/01/19 13:31:26;;;;;;;;;18.75;15.75;;;;;15.63;27.83;102310.31;146603;630;47010;-74
2022/01/19 13:34:18;;;;;;;;;23.25;18.50;;;;;16.66;28.26;102472.12;146611;569;46020;-74
2022/01/19 13:37:10;;;;;;;;;17.25;13.75;;;;;16.79;26.39;102470.31;146602;630;47010;-74
2022/01/19 13:40:08;;;;;;;;;19.75;18.00;;;;;16.76;28.13;102470.13;146611;680;46008;-75
2022/01/19 13:43:11;;;;;;;;;25.50;20.50;;;;;16.81;28.12;102471.25;146608;592;46016;-74
2022/01/19 13:46:12;;;;;;;;;9.25;9.25;;;;;16.92;27.57;102461.38;146604;640;47008;-74
2022/01/19 13:49:09;;;;;;;;;25.00;24.00;;;;;17.04;28.04;102456.78;146611;668;46010;-74
2022/01/19 13:52:01;;;;;;;;;13.00;13.00;;;;;17.11;27.92;102441.38;146610;575;46020;-74
2022/01/19 13:54:54;;;;;;;;;13.75;13.75;;;;;17.08;27.27;102445.62;146605;662;46016;-74
2022/01/19 13:57:46;;;;;;;;;10.00;8.75;;;;;17.07;27.01;102445.53;146609;675;46008;-75
2022/01/19 14:00:40;;;;;;;;;13.50;11.00;;;;;16.99;25.61;102447.75;146611;649;46010;-74
2022/01/19 14:03:56;;;;;;;;;17.75;16.50;;;;;16.77;29.77;102443.13;146612;608;46008;-75
2022/01/19 14:06:50;;;;;;;;;12.50;12.50;;;;;16.66;27.46;102441.59;146605;569;46017;-74
2022/01/19 14:09:42;;;;;;;;;20.00;19.00;;;;;16.67;27.93;102440.78;146607;595;46008;-74
2022/01/19 14:12:34;;;;;;;;;11.00;10.50;;;;;16.76;27.51;102438.69;146602;646;47010;-74
2022/01/19 14:15:32;;;;;;;;;21.00;20.50;;;;;16.82;29.06;102439.03;146603;598;47012;-79
2022/01/19 14:18:24;;;;;;;;;11.00;9.25;;;;;16.83;27.79;102439.94;146606;719;46029;-72
2022/01/19 14:21:16;;;;;;;;;14.75;13.50;;;;;16.68;27.38;102439.97;146614;575;47008;-71
2022/01/19 14:24:08;;;;;;;;;26.00;25.25;;;;;16.57;26.84;102438.47;146603;569;46029;-70
2022/01/19 14:27:03;;;;;;;;;35.75;30.75;;;;;16.53;27.87;102433.91;146611;622;46008;-71
2022/01/19 14:30:24;;;;;;;;;10.75;10.25;;;;;16.52;28.67;102434.72;146604;717;47010;-72
2022/01/19 14:33:17;;;;;;;;;14.25;13.75;;;;;16.39;26.86;102430.53;146607;610;47008;-76
2022/01/19 14:36:09;;;;;;;;;11.25;9.75;;;;;16.08;27.04;102433.19;146607;604;46017;-71
2022/01/19 14:39:03;;;;;;;;;15.25;13.50;;;;;15.70;27.25;102429.31;146614;599;46020;-71
2022/01/19 14:41:57;;;;;;;;;6.75;5.75;;;;;15.24;27.48;102437.91;146605;712;47016;-72
2022/01/19 14:45:01;;;;;;;;;11.00;11.00;;;;;14.84;27.65;102431.09;146602;575;46021;-71
2022/01/19 14:47:55;;;;;;;;;9.75;8.75;;;;;14.44;27.99;102421.66;146602;564;47010;-71
2022/01/19 14:50:47;;;;;;;;;15.25;15.25;;;;;14.13;28.87;102421.44;146615;613;46021;-70
2022/01/19 14:53:39;;;;;;;;;16.75;15.75;;;;;13.79;29.05;102423.59;146608;576;46010;-71
2022/01/19 14:56:32;;;;;;;;;9.00;8.00;;;;;13.40;28.58;102426.28;146610;662;46020;-70